sensor_id;sensor_type;location;lat;lon;timestamp;P1;durP1;ratioP1;P2;durP2;ratioP2
9716;SDS011;4897;43.570;27.832;2022-09-29T00:01:14;11.32;;;4.10;;
9716;SDS011;4897;43.570;27.832;2022-09-29T00:03:42;8.55;;;3.50;;
9716;SDS011;4897;43.570;27.832;2022-09-29T00:06:13;9.68;;;3.70;;
9716;SDS011;4897;43.570;27.832;2022-09-29T00:08:41;10.48;;;3.35;;
9716;SDS011;4897;43.570;27.832;2022-09-29T00:11:09;13.93;;;3.33;;
9716;SDS011;4897;43.570;27.832;2022-09-29T00:13:36;6.05;;;3.13;;
9716;SDS011;4897;43.570;27.832;2022-09-29T00:16:04;12.15;;;3.45;;
9716;SDS011;4897;43.570;27.832;2022-09-29T00:18:32;9.38;;;3.50;;
9716;SDS011;4897;43.570;27.832;2022-09-29T00:21:02;11.63;;;3.45;;
9716;SDS011;4897;43.570;27.832;2022-09-29T00:23:31;6.80;;;3.10;;
9716;SDS011;4897;43.570;27.832;2022-09-29T00:26:02;5.85;;;3.00;;
9716;SDS011;4897;43.570;27.832;2022-09-29T00:28:33;6.57;;;3.10;;
9716;SDS011;4897;43.570;27.832;2022-09-29T00:31:01;6.90;;;3.10;;
9716;SDS011;4897;43.570;27.832;2022-09-29T00:33:29;7.22;;;3.20;;
9716;SDS011;4897;43.570;27.832;2022-09-29T00:35:58;5.32;;;3.08;;
9716;SDS011;4897;43.570;27.832;2022-09-29T00:38:27;6.88;;;3.30;;
9716;SDS011;4897;43.570;27.832;2022-09-29T00:40:57;7.57;;;3.35;;
9716;SDS011;4897;43.570;27.832;2022-09-29T00:43:45;10.25;;;3.70;;
9716;SDS011;4897;43.570;27.832;2022-09-29T00:46:19;8.93;;;3.67;;
9716;SDS011;4897;43.570;27.832;2022-09-29T00:48:51;6.80;;;3.60;;
9716;SDS011;4897;43.570;27.832;2022-09-29T00:51:21;9.98;;;3.67;;
9716;SDS011;4897;43.570;27.832;2022-09-29T00:53:49;8.40;;;4.00;;
9716;SDS011;4897;43.570;27.832;2022-09-29T00:56:17;8.45;;;3.67;;
9716;SDS011;4897;43.570;27.832;2022-09-29T00:58:46;7.30;;;3.55;;
9716;SDS011;4897;43.570;27.832;2022-09-29T01:01:20;7.45;;;3.65;;
9716;SDS011;4897;43.570;27.832;2022-09-29T01:03:47;5.13;;;3.58;;
9716;SDS011;4897;43.570;27.832;2022-09-29T01:06:19;7.78;;;3.65;;
9716;SDS011;4897;43.570;27.832;2022-09-29T01:08:50;6.30;;;3.22;;
9716;SDS011;4897;43.570;27.832;2022-09-29T01:11:22;8.25;;;3.53;;
9716;SDS011;4897;43.570;27.832;2022-09-29T01:13:49;7.18;;;3.75;;
9716;SDS011;4897;43.570;27.832;2022-09-29T01:16:17;8.75;;;4.28;;
9716;SDS011;4897;43.570;27.832;2022-09-29T01:18:45;8.73;;;4.00;;
9716;SDS011;4897;43.570;27.832;2022-09-29T01:21:15;8.13;;;3.90;;
9716;SDS011;4897;43.570;27.832;2022-09-29T01:27:01;12.00;;;5.03;;
9716;SDS011;4897;43.570;27.832;2022-09-29T01:32:40;11.85;;;5.40;;
9716;SDS011;4897;43.570;27.832;2022-09-29T01:35:19;11.25;;;5.45;;
9716;SDS011;4897;43.570;27.832;2022-09-29T01:37:55;14.43;;;6.07;;
9716;SDS011;4897;43.570;27.832;2022-09-29T01:40:34;15.93;;;6.00;;
9716;SDS011;4897;43.570;27.832;2022-09-29T01:43:08;18.15;;;6.25;;
9716;SDS011;4897;43.570;27.832;2022-09-29T01:45:45;9.57;;;5.75;;
9716;SDS011;4897;43.570;27.832;2022-09-29T01:48:20;9.45;;;5.75;;
9716;SDS011;4897;43.570;27.832;2022-09-29T01:50:52;10.10;;;5.90;;
9716;SDS011;4897;43.570;27.832;2022-09-29T01:53:22;13.13;;;6.00;;
9716;SDS011;4897;43.570;27.832;2022-09-29T01:55:55;9.32;;;6.28;;
9716;SDS011;4897;43.570;27.832;2022-09-29T01:58:28;14.70;;;7.30;;
9716;SDS011;4897;43.570;27.832;2022-09-29T02:00:59;13.05;;;6.15;;
9716;SDS011;4897;43.570;27.832;2022-09-29T02:03:33;10.38;;;5.97;;
9716;SDS011;4897;43.570;27.832;2022-09-29T02:06:06;10.90;;;6.03;;
9716;SDS011;4897;43.570;27.832;2022-09-29T02:08:39;18.67;;;6.22;;
9716;SDS011;4897;43.570;27.832;2022-09-29T02:11:10;14.45;;;6.32;;
9716;SDS011;4897;43.570;27.832;2022-09-29T02:13:38;11.90;;;5.57;;
9716;SDS011;4897;43.570;27.832;2022-09-29T02:16:08;11.77;;;5.93;;
9716;SDS011;4897;43.570;27.832;2022-09-29T02:18:41;13.55;;;6.30;;
9716;SDS011;4897;43.570;27.832;2022-09-29T02:21:13;13.00;;;6.15;;
9716;SDS011;4897;43.570;27.832;2022-09-29T02:23:40;15.95;;;5.75;;
9716;SDS011;4897;43.570;27.832;2022-09-29T02:26:07;14.75;;;7.05;;
9716;SDS011;4897;43.570;27.832;2022-09-29T02:28:35;22.00;;;7.50;;
9716;SDS011;4897;43.570;27.832;2022-09-29T02:31:03;10.63;;;6.05;;
9716;SDS011;4897;43.570;27.832;2022-09-29T02:33:31;9.55;;;5.93;;
9716;SDS011;4897;43.570;27.832;2022-09-29T02:36:03;12.93;;;6.55;;
9716;SDS011;4897;43.570;27.832;2022-09-29T02:38:43;11.38;;;5.75;;
9716;SDS011;4897;43.570;27.832;2022-09-29T02:41:21;12.32;;;5.28;;
9716;SDS011;4897;43.570;27.832;2022-09-29T02:44:04;11.50;;;5.30;;
9716;SDS011;4897;43.570;27.832;2022-09-29T02:46:45;14.07;;;6.50;;
9716;SDS011;4897;43.570;27.832;2022-09-29T02:49:35;13.90;;;6.28;;
9716;SDS011;4897;43.570;27.832;2022-09-29T02:52:19;12.18;;;6.30;;
9716;SDS011;4897;43.570;27.832;2022-09-29T02:54:54;15.48;;;6.70;;
9716;SDS011;4897;43.570;27.832;2022-09-29T02:57:30;12.18;;;6.28;;
9716;SDS011;4897;43.570;27.832;2022-09-29T03:00:04;10.32;;;6.32;;
9716;SDS011;4897;43.570;27.832;2022-09-29T03:02:34;16.77;;;6.47;;
9716;SDS011;4897;43.570;27.832;2022-09-29T03:05:02;14.75;;;6.97;;
9716;SDS011;4897;43.570;27.832;2022-09-29T03:07:31;12.38;;;6.15;;
9716;SDS011;4897;43.570;27.832;2022-09-29T03:09:57;10.52;;;6.18;;
9716;SDS011;4897;43.570;27.832;2022-09-29T03:12:26;11.15;;;6.22;;
9716;SDS011;4897;43.570;27.832;2022-09-29T03:14:53;14.45;;;6.50;;
9716;SDS011;4897;43.570;27.832;2022-09-29T03:17:20;13.63;;;6.93;;
9716;SDS011;4897;43.570;27.832;2022-09-29T03:19:46;15.20;;;7.05;;
9716;SDS011;4897;43.570;27.832;2022-09-29T03:22:13;11.45;;;6.22;;
9716;SDS011;4897;43.570;27.832;2022-09-29T03:24:43;16.88;;;6.97;;
9716;SDS011;4897;43.570;27.832;2022-09-29T03:27:10;14.13;;;6.70;;
9716;SDS011;4897;43.570;27.832;2022-09-29T03:29:37;7.70;;;5.72;;
9716;SDS011;4897;43.570;27.832;2022-09-29T03:32:04;12.90;;;6.30;;
9716;SDS011;4897;43.570;27.832;2022-09-29T03:34:31;20.85;;;6.88;;
9716;SDS011;4897;43.570;27.832;2022-09-29T03:36:59;16.23;;;6.57;;
9716;SDS011;4897;43.570;27.832;2022-09-29T03:39:26;9.27;;;5.95;;
9716;SDS011;4897;43.570;27.832;2022-09-29T03:41:55;12.38;;;5.97;;
9716;SDS011;4897;43.570;27.832;2022-09-29T03:44:22;14.52;;;6.35;;
9716;SDS011;4897;43.570;27.832;2022-09-29T03:46:49;17.98;;;7.07;;
9716;SDS011;4897;43.570;27.832;2022-09-29T03:49:16;16.08;;;7.40;;
9716;SDS011;4897;43.570;27.832;2022-09-29T03:51:43;16.73;;;7.10;;
9716;SDS011;4897;43.570;27.832;2022-09-29T03:54:10;20.67;;;7.82;;
9716;SDS011;4897;43.570;27.832;2022-09-29T03:56:37;13.27;;;7.15;;
9716;SDS011;4897;43.570;27.832;2022-09-29T03:59:06;25.00;;;7.70;;
9716;SDS011;4897;43.570;27.832;2022-09-29T04:01:36;12.35;;;6.88;;
9716;SDS011;4897;43.570;27.832;2022-09-29T04:04:03;15.95;;;7.35;;
9716;SDS011;4897;43.570;27.832;2022-09-29T04:06:30;16.20;;;8.25;;
9716;SDS011;4897;43.570;27.832;2022-09-29T04:08:58;19.27;;;8.35;;
9716;SDS011;4897;43.570;27.832;2022-09-29T04:11:25;15.35;;;8.20;;
9716;SDS011;4897;43.570;27.832;2022-09-29T04:13:53;17.10;;;8.35;;
9716;SDS011;4897;43.570;27.832;2022-09-29T04:16:21;18.00;;;7.63;;
9716;SDS011;4897;43.570;27.832;2022-09-29T04:18:48;16.17;;;7.32;;
9716;SDS011;4897;43.570;27.832;2022-09-29T04:21:15;18.63;;;8.05;;
9716;SDS011;4897;43.570;27.832;2022-09-29T04:23:42;19.70;;;7.43;;
9716;SDS011;4897;43.570;27.832;2022-09-29T04:26:09;19.40;;;7.47;;
9716;SDS011;4897;43.570;27.832;2022-09-29T04:28:36;15.48;;;8.10;;
9716;SDS011;4897;43.570;27.832;2022-09-29T04:31:04;23.55;;;9.05;;
9716;SDS011;4897;43.570;27.832;2022-09-29T04:33:32;16.88;;;8.20;;
9716;SDS011;4897;43.570;27.832;2022-09-29T04:36:00;14.00;;;7.65;;
9716;SDS011;4897;43.570;27.832;2022-09-29T04:38:27;22.95;;;7.75;;
9716;SDS011;4897;43.570;27.832;2022-09-29T04:40:54;15.45;;;8.23;;
9716;SDS011;4897;43.570;27.832;2022-09-29T04:43:21;19.58;;;8.65;;
9716;SDS011;4897;43.570;27.832;2022-09-29T04:45:48;24.63;;;8.50;;
9716;SDS011;4897;43.570;27.832;2022-09-29T04:48:15;17.48;;;8.65;;
9716;SDS011;4897;43.570;27.832;2022-09-29T04:50:43;21.38;;;8.88;;
9716;SDS011;4897;43.570;27.832;2022-09-29T04:53:11;24.77;;;8.68;;
9716;SDS011;4897;43.570;27.832;2022-09-29T04:55:38;20.63;;;7.85;;
9716;SDS011;4897;43.570;27.832;2022-09-29T04:58:05;18.08;;;7.85;;
9716;SDS011;4897;43.570;27.832;2022-09-29T05:00:32;16.80;;;8.23;;
9716;SDS011;4897;43.570;27.832;2022-09-29T05:02:59;17.10;;;8.15;;
9716;SDS011;4897;43.570;27.832;2022-09-29T05:05:27;19.65;;;9.23;;
9716;SDS011;4897;43.570;27.832;2022-09-29T05:07:55;32.33;;;10.70;;
9716;SDS011;4897;43.570;27.832;2022-09-29T05:10:23;26.23;;;10.13;;
9716;SDS011;4897;43.570;27.832;2022-09-29T05:12:51;12.93;;;7.40;;
9716;SDS011;4897;43.570;27.832;2022-09-29T05:15:20;17.83;;;7.90;;
9716;SDS011;4897;43.570;27.832;2022-09-29T05:17:47;13.30;;;6.40;;
9716;SDS011;4897;43.570;27.832;2022-09-29T05:20:14;11.70;;;6.47;;
9716;SDS011;4897;43.570;27.832;2022-09-29T05:22:41;26.25;;;6.47;;
9716;SDS011;4897;43.570;27.832;2022-09-29T05:25:10;19.52;;;6.70;;
9716;SDS011;4897;43.570;27.832;2022-09-29T05:27:37;21.40;;;6.13;;
9716;SDS011;4897;43.570;27.832;2022-09-29T05:30:13;23.48;;;5.78;;
9716;SDS011;4897;43.570;27.832;2022-09-29T05:32:41;11.75;;;5.35;;
9716;SDS011;4897;43.570;27.832;2022-09-29T05:35:13;13.13;;;5.75;;
9716;SDS011;4897;43.570;27.832;2022-09-29T05:37:40;9.65;;;5.00;;
9716;SDS011;4897;43.570;27.832;2022-09-29T05:40:07;16.75;;;4.18;;
9716;SDS011;4897;43.570;27.832;2022-09-29T05:42:36;14.80;;;4.38;;
9716;SDS011;4897;43.570;27.832;2022-09-29T05:45:05;16.27;;;4.00;;
9716;SDS011;4897;43.570;27.832;2022-09-29T05:47:34;9.85;;;2.88;;
9716;SDS011;4897;43.570;27.832;2022-09-29T05:50:01;10.05;;;3.20;;
9716;SDS011;4897;43.570;27.832;2022-09-29T05:52:28;9.43;;;3.63;;
9716;SDS011;4897;43.570;27.832;2022-09-29T05:54:57;5.57;;;2.92;;
9716;SDS011;4897;43.570;27.832;2022-09-29T05:57:24;4.05;;;2.47;;
9716;SDS011;4897;43.570;27.832;2022-09-29T05:59:53;3.42;;;2.45;;
9716;SDS011;4897;43.570;27.832;2022-09-29T06:02:20;5.25;;;2.53;;
9716;SDS011;4897;43.570;27.832;2022-09-29T06:04:47;6.43;;;2.38;;
9716;SDS011;4897;43.570;27.832;2022-09-29T06:07:23;3.15;;;2.13;;
9716;SDS011;4897;43.570;27.832;2022-09-29T06:09:50;6.03;;;2.30;;
9716;SDS011;4897;43.570;27.832;2022-09-29T06:12:17;7.57;;;2.40;;
9716;SDS011;4897;43.570;27.832;2022-09-29T06:14:44;5.80;;;2.05;;
9716;SDS011;4897;43.570;27.832;2022-09-29T06:17:12;2.47;;;1.98;;
9716;SDS011;4897;43.570;27.832;2022-09-29T06:19:39;5.22;;;2.20;;
9716;SDS011;4897;43.570;27.832;2022-09-29T06:22:06;5.15;;;2.22;;
9716;SDS011;4897;43.570;27.832;2022-09-29T06:24:35;3.10;;;2.20;;
9716;SDS011;4897;43.570;27.832;2022-09-29T06:27:02;5.65;;;2.63;;
9716;SDS011;4897;43.570;27.832;2022-09-29T06:29:31;14.90;;;2.45;;
9716;SDS011;4897;43.570;27.832;2022-09-29T06:31:59;4.13;;;2.03;;
9716;SDS011;4897;43.570;27.832;2022-09-29T06:34:27;6.22;;;2.13;;
9716;SDS011;4897;43.570;27.832;2022-09-29T06:36:54;6.38;;;2.40;;
9716;SDS011;4897;43.570;27.832;2022-09-29T06:39:39;4.70;;;2.30;;
9716;SDS011;4897;43.570;27.832;2022-09-29T06:42:05;9.85;;;2.33;;
9716;SDS011;4897;43.570;27.832;2022-09-29T06:44:32;3.63;;;2.00;;
9716;SDS011;4897;43.570;27.832;2022-09-29T06:46:59;5.68;;;2.00;;
9716;SDS011;4897;43.570;27.832;2022-09-29T06:49:27;4.82;;;2.35;;
9716;SDS011;4897;43.570;27.832;2022-09-29T06:51:54;3.00;;;2.20;;
9716;SDS011;4897;43.570;27.832;2022-09-29T06:54:22;5.70;;;2.53;;
9716;SDS011;4897;43.570;27.832;2022-09-29T06:56:50;4.05;;;2.40;;
9716;SDS011;4897;43.570;27.832;2022-09-29T06:59:19;3.83;;;2.35;;
9716;SDS011;4897;43.570;27.832;2022-09-29T07:01:46;5.85;;;2.20;;
9716;SDS011;4897;43.570;27.832;2022-09-29T07:04:14;3.88;;;2.22;;
9716;SDS011;4897;43.570;27.832;2022-09-29T07:06:42;3.45;;;1.92;;
9716;SDS011;4897;43.570;27.832;2022-09-29T07:09:10;3.28;;;1.98;;
9716;SDS011;4897;43.570;27.832;2022-09-29T07:11:40;9.50;;;2.58;;
9716;SDS011;4897;43.570;27.832;2022-09-29T07:14:09;8.68;;;2.35;;
9716;SDS011;4897;43.570;27.832;2022-09-29T07:16:36;3.33;;;2.08;;
9716;SDS011;4897;43.570;27.832;2022-09-29T07:19:03;6.05;;;2.30;;
9716;SDS011;4897;43.570;27.832;2022-09-29T07:21:30;11.18;;;2.65;;
9716;SDS011;4897;43.570;27.832;2022-09-29T07:23:58;4.90;;;2.40;;
9716;SDS011;4897;43.570;27.832;2022-09-29T07:26:25;6.95;;;2.78;;
9716;SDS011;4897;43.570;27.832;2022-09-29T07:28:53;3.85;;;2.83;;
9716;SDS011;4897;43.570;27.832;2022-09-29T07:31:20;4.07;;;2.67;;
9716;SDS011;4897;43.570;27.832;2022-09-29T07:33:48;6.30;;;1.80;;
9716;SDS011;4897;43.570;27.832;2022-09-29T07:36:17;3.22;;;2.03;;
9716;SDS011;4897;43.570;27.832;2022-09-29T07:38:45;4.78;;;1.83;;
9716;SDS011;4897;43.570;27.832;2022-09-29T07:41:14;4.13;;;1.60;;
9716;SDS011;4897;43.570;27.832;2022-09-29T07:43:42;5.57;;;1.85;;
9716;SDS011;4897;43.570;27.832;2022-09-29T07:46:09;3.55;;;1.90;;
9716;SDS011;4897;43.570;27.832;2022-09-29T07:48:36;3.85;;;1.92;;
9716;SDS011;4897;43.570;27.832;2022-09-29T07:51:04;2.78;;;1.73;;
9716;SDS011;4897;43.570;27.832;2022-09-29T07:53:36;6.30;;;2.20;;
9716;SDS011;4897;43.570;27.832;2022-09-29T07:56:06;7.10;;;2.00;;
9716;SDS011;4897;43.570;27.832;2022-09-29T07:58:36;5.78;;;2.00;;
9716;SDS011;4897;43.570;27.832;2022-09-29T08:01:04;4.68;;;1.95;;
9716;SDS011;4897;43.570;27.832;2022-09-29T08:03:34;2.45;;;1.88;;
9716;SDS011;4897;43.570;27.832;2022-09-29T08:06:01;5.43;;;2.42;;
9716;SDS011;4897;43.570;27.832;2022-09-29T08:08:28;3.55;;;2.10;;
9716;SDS011;4897;43.570;27.832;2022-09-29T08:11:02;2.50;;;1.70;;
9716;SDS011;4897;43.570;27.832;2022-09-29T08:13:32;4.93;;;1.73;;
9716;SDS011;4897;43.570;27.832;2022-09-29T08:16:02;3.05;;;1.90;;
9716;SDS011;4897;43.570;27.832;2022-09-29T08:18:31;4.57;;;2.30;;
9716;SDS011;4897;43.570;27.832;2022-09-29T08:20:58;7.40;;;2.92;;
9716;SDS011;4897;43.570;27.832;2022-09-29T08:23:26;2.60;;;1.77;;
9716;SDS011;4897;43.570;27.832;2022-09-29T08:25:58;4.78;;;2.05;;
9716;SDS011;4897;43.570;27.832;2022-09-29T08:28:27;3.30;;;1.90;;
9716;SDS011;4897;43.570;27.832;2022-09-29T08:30:54;3.70;;;2.03;;
9716;SDS011;4897;43.570;27.832;2022-09-29T08:33:22;3.67;;;2.33;;
9716;SDS011;4897;43.570;27.832;2022-09-29T08:35:54;3.65;;;2.05;;
9716;SDS011;4897;43.570;27.832;2022-09-29T08:38:21;2.90;;;2.20;;
9716;SDS011;4897;43.570;27.832;2022-09-29T08:40:50;3.85;;;2.75;;
9716;SDS011;4897;43.570;27.832;2022-09-29T08:43:18;4.18;;;2.00;;
9716;SDS011;4897;43.570;27.832;2022-09-29T08:45:54;3.03;;;1.98;;
9716;SDS011;4897;43.570;27.832;2022-09-29T08:48:26;6.35;;;2.00;;
9716;SDS011;4897;43.570;27.832;2022-09-29T08:50:59;6.28;;;1.83;;
9716;SDS011;4897;43.570;27.832;2022-09-29T08:53:30;3.50;;;1.70;;
9716;SDS011;4897;43.570;27.832;2022-09-29T08:55:59;5.68;;;2.13;;
9716;SDS011;4897;43.570;27.832;2022-09-29T08:58:32;3.45;;;1.60;;
9716;SDS011;4897;43.570;27.832;2022-09-29T09:01:06;3.33;;;1.52;;
9716;SDS011;4897;43.570;27.832;2022-09-29T09:03:51;9.95;;;2.20;;
9716;SDS011;4897;43.570;27.832;2022-09-29T09:06:35;2.85;;;1.70;;
9716;SDS011;4897;43.570;27.832;2022-09-29T09:12:27;2.75;;;1.60;;
9716;SDS011;4897;43.570;27.832;2022-09-29T09:15:21;2.22;;;1.42;;
9716;SDS011;4897;43.570;27.832;2022-09-29T09:21:15;2.28;;;1.63;;
9716;SDS011;4897;43.570;27.832;2022-09-29T09:23:48;9.32;;;1.70;;
9716;SDS011;4897;43.570;27.832;2022-09-29T09:26:19;2.55;;;1.98;;
9716;SDS011;4897;43.570;27.832;2022-09-29T09:28:58;2.97;;;1.80;;
9716;SDS011;4897;43.570;27.832;2022-09-29T09:31:30;2.65;;;1.92;;
9716;SDS011;4897;43.570;27.832;2022-09-29T09:34:04;2.97;;;2.10;;
9716;SDS011;4897;43.570;27.832;2022-09-29T09:36:38;3.13;;;2.00;;
9716;SDS011;4897;43.570;27.832;2022-09-29T09:39:09;5.47;;;1.80;;
9716;SDS011;4897;43.570;27.832;2022-09-29T09:41:40;3.97;;;1.85;;
9716;SDS011;4897;43.570;27.832;2022-09-29T09:44:12;3.10;;;2.25;;
9716;SDS011;4897;43.570;27.832;2022-09-29T09:46:44;5.60;;;2.20;;
9716;SDS011;4897;43.570;27.832;2022-09-29T09:49:19;5.70;;;3.80;;
9716;SDS011;4897;43.570;27.832;2022-09-29T09:51:53;4.70;;;2.58;;
9716;SDS011;4897;43.570;27.832;2022-09-29T09:54:30;3.05;;;1.95;;
9716;SDS011;4897;43.570;27.832;2022-09-29T09:57:11;3.83;;;2.15;;
9716;SDS011;4897;43.570;27.832;2022-09-29T10:00:02;6.82;;;2.20;;
9716;SDS011;4897;43.570;27.832;2022-09-29T10:02:34;2.10;;;1.80;;
9716;SDS011;4897;43.570;27.832;2022-09-29T10:05:04;3.60;;;2.00;;
9716;SDS011;4897;43.570;27.832;2022-09-29T10:07:39;3.47;;;1.95;;
9716;SDS011;4897;43.570;27.832;2022-09-29T10:10:17;2.60;;;2.05;;
9716;SDS011;4897;43.570;27.832;2022-09-29T10:12:46;5.80;;;2.70;;
9716;SDS011;4897;43.570;27.832;2022-09-29T10:15:21;4.25;;;2.40;;
9716;SDS011;4897;43.570;27.832;2022-09-29T10:17:54;3.30;;;2.30;;
9716;SDS011;4897;43.570;27.832;2022-09-29T10:20:34;3.38;;;1.98;;
9716;SDS011;4897;43.570;27.832;2022-09-29T10:23:19;3.97;;;2.15;;
9716;SDS011;4897;43.570;27.832;2022-09-29T10:25:50;4.72;;;2.08;;
9716;SDS011;4897;43.570;27.832;2022-09-29T10:28:20;3.92;;;2.00;;
9716;SDS011;4897;43.570;27.832;2022-09-29T10:30:48;3.88;;;2.03;;
9716;SDS011;4897;43.570;27.832;2022-09-29T10:33:16;3.13;;;1.63;;
9716;SDS011;4897;43.570;27.832;2022-09-29T10:35:46;2.78;;;1.85;;
9716;SDS011;4897;43.570;27.832;2022-09-29T10:38:17;2.28;;;1.73;;
9716;SDS011;4897;43.570;27.832;2022-09-29T10:40:52;2.72;;;1.83;;
9716;SDS011;4897;43.570;27.832;2022-09-29T10:43:23;4.45;;;1.40;;
9716;SDS011;4897;43.570;27.832;2022-09-29T10:45:52;2.80;;;2.10;;
9716;SDS011;4897;43.570;27.832;2022-09-29T10:48:23;3.58;;;2.17;;
9716;SDS011;4897;43.570;27.832;2022-09-29T10:50:51;5.97;;;3.30;;
9716;SDS011;4897;43.570;27.832;2022-09-29T10:53:27;3.05;;;2.15;;
9716;SDS011;4897;43.570;27.832;2022-09-29T10:55:59;6.47;;;4.55;;
9716;SDS011;4897;43.570;27.832;2022-09-29T10:58:31;3.45;;;2.20;;
9716;SDS011;4897;43.570;27.832;2022-09-29T11:01:01;4.18;;;2.10;;
9716;SDS011;4897;43.570;27.832;2022-09-29T11:03:32;1.70;;;1.40;;
9716;SDS011;4897;43.570;27.832;2022-09-29T11:06:03;2.97;;;2.20;;
9716;SDS011;4897;43.570;27.832;2022-09-29T11:08:33;3.78;;;2.35;;
9716;SDS011;4897;43.570;27.832;2022-09-29T11:11:22;2.17;;;1.70;;
9716;SDS011;4897;43.570;27.832;2022-09-29T11:13:52;5.55;;;2.20;;
9716;SDS011;4897;43.570;27.832;2022-09-29T11:16:23;3.22;;;1.90;;
9716;SDS011;4897;43.570;27.832;2022-09-29T11:18:54;4.07;;;2.30;;
9716;SDS011;4897;43.570;27.832;2022-09-29T11:27:37;2.60;;;1.73;;
9716;SDS011;4897;43.570;27.832;2022-09-29T11:30:14;3.03;;;1.95;;
9716;SDS011;4897;43.570;27.832;2022-09-29T11:32:59;3.33;;;2.10;;
9716;SDS011;4897;43.570;27.832;2022-09-29T11:35:37;3.08;;;2.10;;
9716;SDS011;4897;43.570;27.832;2022-09-29T11:38:17;2.60;;;2.10;;
9716;SDS011;4897;43.570;27.832;2022-09-29T11:40:59;2.53;;;2.10;;
9716;SDS011;4897;43.570;27.832;2022-09-29T11:43:40;3.08;;;2.00;;
9716;SDS011;4897;43.570;27.832;2022-09-29T11:46:16;3.38;;;2.30;;
9716;SDS011;4897;43.570;27.832;2022-09-29T11:49:14;3.72;;;2.58;;
9716;SDS011;4897;43.570;27.832;2022-09-29T11:52:07;12.70;;;2.38;;
9716;SDS011;4897;43.570;27.832;2022-09-29T11:57:45;3.65;;;2.30;;
9716;SDS011;4897;43.570;27.832;2022-09-29T12:00:26;9.68;;;5.22;;
9716;SDS011;4897;43.570;27.832;2022-09-29T12:03:15;5.30;;;3.25;;
9716;SDS011;4897;43.570;27.832;2022-09-29T12:05:56;4.38;;;2.50;;
9716;SDS011;4897;43.570;27.832;2022-09-29T12:08:46;7.68;;;2.97;;
9716;SDS011;4897;43.570;27.832;2022-09-29T12:11:28;7.10;;;5.43;;
9716;SDS011;4897;43.570;27.832;2022-09-29T12:14:04;4.07;;;2.63;;
9716;SDS011;4897;43.570;27.832;2022-09-29T12:16:41;5.57;;;3.05;;
9716;SDS011;4897;43.570;27.832;2022-09-29T12:19:15;9.70;;;6.10;;
9716;SDS011;4897;43.570;27.832;2022-09-29T12:21:47;3.47;;;1.90;;
9716;SDS011;4897;43.570;27.832;2022-09-29T12:24:16;5.43;;;2.42;;
9716;SDS011;4897;43.570;27.832;2022-09-29T12:26:46;3.10;;;2.35;;
9716;SDS011;4897;43.570;27.832;2022-09-29T12:29:19;2.95;;;2.22;;
9716;SDS011;4897;43.570;27.832;2022-09-29T12:31:55;3.50;;;2.17;;
9716;SDS011;4897;43.570;27.832;2022-09-29T12:34:34;4.35;;;2.63;;
9716;SDS011;4897;43.570;27.832;2022-09-29T12:37:10;3.58;;;2.20;;
9716;SDS011;4897;43.570;27.832;2022-09-29T12:39:43;5.43;;;2.80;;
9716;SDS011;4897;43.570;27.832;2022-09-29T12:45:18;6.65;;;2.95;;
9716;SDS011;4897;43.570;27.832;2022-09-29T12:47:53;8.27;;;3.45;;
9716;SDS011;4897;43.570;27.832;2022-09-29T12:50:26;9.77;;;3.13;;
9716;SDS011;4897;43.570;27.832;2022-09-29T12:52:59;6.57;;;3.20;;
9716;SDS011;4897;43.570;27.832;2022-09-29T12:55:35;7.90;;;2.80;;
9716;SDS011;4897;43.570;27.832;2022-09-29T12:58:10;9.25;;;3.70;;
9716;SDS011;4897;43.570;27.832;2022-09-29T13:00:47;7.20;;;2.90;;
9716;SDS011;4897;43.570;27.832;2022-09-29T13:03:22;8.32;;;3.40;;
9716;SDS011;4897;43.570;27.832;2022-09-29T13:06:22;6.95;;;2.90;;
9716;SDS011;4897;43.570;27.832;2022-09-29T13:09:17;5.88;;;2.70;;
9716;SDS011;4897;43.570;27.832;2022-09-29T13:12:07;6.13;;;2.85;;
9716;SDS011;4897;43.570;27.832;2022-09-29T13:14:55;4.32;;;2.67;;
9716;SDS011;4897;43.570;27.832;2022-09-29T13:17:47;7.00;;;2.80;;
9716;SDS011;4897;43.570;27.832;2022-09-29T13:20:31;3.50;;;2.42;;
9716;SDS011;4897;43.570;27.832;2022-09-29T13:26:12;7.25;;;2.85;;
9716;SDS011;4897;43.570;27.832;2022-09-29T13:28:59;4.55;;;2.45;;
9716;SDS011;4897;43.570;27.832;2022-09-29T13:31:30;7.32;;;2.63;;
9716;SDS011;4897;43.570;27.832;2022-09-29T13:34:04;5.20;;;2.47;;
9716;SDS011;4897;43.570;27.832;2022-09-29T13:36:33;4.15;;;2.50;;
9716;SDS011;4897;43.570;27.832;2022-09-29T13:39:07;4.15;;;3.30;;
9716;SDS011;4897;43.570;27.832;2022-09-29T13:41:46;3.72;;;2.55;;
9716;SDS011;4897;43.570;27.832;2022-09-29T13:44:20;9.65;;;5.18;;
9716;SDS011;4897;43.570;27.832;2022-09-29T13:46:49;7.78;;;4.03;;
9716;SDS011;4897;43.570;27.832;2022-09-29T13:49:24;6.68;;;3.58;;
9716;SDS011;4897;43.570;27.832;2022-09-29T13:51:54;6.97;;;2.55;;
9716;SDS011;4897;43.570;27.832;2022-09-29T13:54:31;5.45;;;2.28;;
9716;SDS011;4897;43.570;27.832;2022-09-29T13:57:03;6.85;;;2.65;;
9716;SDS011;4897;43.570;27.832;2022-09-29T13:59:34;7.05;;;2.90;;
9716;SDS011;4897;43.570;27.832;2022-09-29T14:02:16;3.10;;;2.08;;
9716;SDS011;4897;43.570;27.832;2022-09-29T14:04:51;5.13;;;2.38;;
9716;SDS011;4897;43.570;27.832;2022-09-29T14:07:36;5.13;;;2.10;;
9716;SDS011;4897;43.570;27.832;2022-09-29T14:10:13;7.25;;;2.60;;
9716;SDS011;4897;43.570;27.832;2022-09-29T14:12:46;3.65;;;2.10;;
9716;SDS011;4897;43.570;27.832;2022-09-29T14:15:19;5.28;;;2.28;;
9716;SDS011;4897;43.570;27.832;2022-09-29T14:17:48;3.67;;;2.15;;
9716;SDS011;4897;43.570;27.832;2022-09-29T14:20:23;6.55;;;2.35;;
9716;SDS011;4897;43.570;27.832;2022-09-29T14:22:58;8.30;;;3.00;;
9716;SDS011;4897;43.570;27.832;2022-09-29T14:25:28;4.47;;;2.40;;
9716;SDS011;4897;43.570;27.832;2022-09-29T14:27:57;5.28;;;2.67;;
9716;SDS011;4897;43.570;27.832;2022-09-29T14:30:36;9.15;;;2.53;;
9716;SDS011;4897;43.570;27.832;2022-09-29T14:33:08;9.55;;;2.63;;
9716;SDS011;4897;43.570;27.832;2022-09-29T14:35:40;4.38;;;2.30;;
9716;SDS011;4897;43.570;27.832;2022-09-29T14:38:11;6.07;;;2.72;;
9716;SDS011;4897;43.570;27.832;2022-09-29T14:40:54;3.13;;;2.35;;
9716;SDS011;4897;43.570;27.832;2022-09-29T14:43:23;6.68;;;3.00;;
9716;SDS011;4897;43.570;27.832;2022-09-29T14:45:55;4.55;;;2.75;;
9716;SDS011;4897;43.570;27.832;2022-09-29T14:49:02;4.18;;;2.40;;
9716;SDS011;4897;43.570;27.832;2022-09-29T14:52:01;11.15;;;3.83;;
9716;SDS011;4897;43.570;27.832;2022-09-29T14:54:38;6.40;;;2.78;;
9716;SDS011;4897;43.570;27.832;2022-09-29T14:57:23;9.20;;;3.22;;
9716;SDS011;4897;43.570;27.832;2022-09-29T15:00:01;5.30;;;2.70;;
9716;SDS011;4897;43.570;27.832;2022-09-29T15:02:31;5.53;;;2.92;;
9716;SDS011;4897;43.570;27.832;2022-09-29T15:05:10;8.10;;;2.90;;
9716;SDS011;4897;43.570;27.832;2022-09-29T15:07:41;5.93;;;3.15;;
9716;SDS011;4897;43.570;27.832;2022-09-29T15:10:21;6.70;;;3.20;;
9716;SDS011;4897;43.570;27.832;2022-09-29T15:12:51;5.68;;;3.28;;
9716;SDS011;4897;43.570;27.832;2022-09-29T15:15:32;10.40;;;3.42;;
9716;SDS011;4897;43.570;27.832;2022-09-29T15:18:07;12.18;;;4.22;;
9716;SDS011;4897;43.570;27.832;2022-09-29T15:20:47;12.30;;;3.72;;
9716;SDS011;4897;43.570;27.832;2022-09-29T15:23:35;5.45;;;3.78;;
9716;SDS011;4897;43.570;27.832;2022-09-29T15:26:22;5.20;;;3.60;;
9716;SDS011;4897;43.570;27.832;2022-09-29T15:28:55;8.55;;;4.28;;
9716;SDS011;4897;43.570;27.832;2022-09-29T15:31:25;9.18;;;5.13;;
9716;SDS011;4897;43.570;27.832;2022-09-29T15:33:54;9.80;;;6.85;;
9716;SDS011;4897;43.570;27.832;2022-09-29T15:36:22;11.25;;;7.30;;
9716;SDS011;4897;43.570;27.832;2022-09-29T15:38:52;15.00;;;7.90;;
9716;SDS011;4897;43.570;27.832;2022-09-29T15:41:25;9.52;;;7.30;;
9716;SDS011;4897;43.570;27.832;2022-09-29T15:43:57;10.50;;;6.78;;
9716;SDS011;4897;43.570;27.832;2022-09-29T15:46:33;10.68;;;6.82;;
9716;SDS011;4897;43.570;27.832;2022-09-29T15:49:08;10.10;;;6.97;;
9716;SDS011;4897;43.570;27.832;2022-09-29T15:51:38;9.20;;;7.18;;
9716;SDS011;4897;43.570;27.832;2022-09-29T15:54:10;9.32;;;7.60;;
9716;SDS011;4897;43.570;27.832;2022-09-29T15:56:40;12.63;;;7.90;;